sensor_id;sensor_type;location;lat;lon;timestamp;pressure;altitude;pressure_sealevel;temperature;humidity
74778;BME280;63298;53.164;8.610;2022-10-16T00:01:08;101048.84;;;14.42;77.97
74778;BME280;63298;53.164;8.610;2022-10-16T00:03:35;101061.97;;;14.47;78.38
74778;BME280;63298;53.164;8.610;2022-10-16T00:06:01;101053.56;;;14.42;78.05
74778;BME280;63298;53.164;8.610;2022-10-16T00:08:27;101059.97;;;14.42;77.87
74778;BME280;63298;53.164;8.610;2022-10-16T00:10:52;101062.41;;;14.39;78.71
74778;BME280;63298;53.164;8.610;2022-10-16T00:13:18;101067.88;;;14.34;78.06
74778;BME280;63298;53.164;8.610;2022-10-16T00:15:46;101072.25;;;14.30;78.05
74778;BME280;63298;53.164;8.610;2022-10-16T00:18:12;101070.03;;;14.32;78.01
74778;BME280;63298;53.164;8.610;2022-10-16T00:20:37;101068.88;;;14.27;77.75
74778;BME280;63298;53.164;8.610;2022-10-16T00:23:04;101078.38;;;14.32;78.46
74778;BME280;63298;53.164;8.610;2022-10-16T00:25:29;101075.59;;;14.32;78.05
74778;BME280;63298;53.164;8.610;2022-10-16T00:27:55;101077.28;;;14.33;78.15
74778;BME280;63298;53.164;8.610;2022-10-16T00:30:20;101071.66;;;14.27;78.21
74778;BME280;63298;53.164;8.610;2022-10-16T00:32:45;101074.59;;;14.21;77.79
74778;BME280;63298;53.164;8.610;2022-10-16T00:35:11;101079.84;;;14.17;77.87
74778;BME280;63298;53.164;8.610;2022-10-16T00:37:36;101087.59;;;14.15;78.42
74778;BME280;63298;53.164;8.610;2022-10-16T00:40:02;101091.44;;;14.14;78.34
74778;BME280;63298;53.164;8.610;2022-10-16T00:42:27;101095.00;;;14.10;78.20
74778;BME280;63298;53.164;8.610;2022-10-16T00:44:55;101096.94;;;14.09;77.92
74778;BME280;63298;53.164;8.610;2022-10-16T00:47:27;101100.47;;;14.05;78.06
74778;BME280;63298;53.164;8.610;2022-10-16T00:49:58;101086.75;;;13.98;78.14
74778;BME280;63298;53.164;8.610;2022-10-16T00:52:25;101092.38;;;14.03;78.30
74778;BME280;63298;53.164;8.610;2022-10-16T00:54:52;101095.69;;;14.00;78.31
74778;BME280;63298;53.164;8.610;2022-10-16T00:57:17;101091.22;;;13.99;77.82
74778;BME280;63298;53.164;8.610;2022-10-16T00:59:43;101097.34;;;14.01;77.88
74778;BME280;63298;53.164;8.610;2022-10-16T01:02:11;101089.53;;;13.98;78.02
74778;BME280;63298;53.164;8.610;2022-10-16T01:04:47;101092.53;;;13.97;77.42
74778;BME280;63298;53.164;8.610;2022-10-16T01:09:51;101092.31;;;13.98;77.83
74778;BME280;63298;53.164;8.610;2022-10-16T01:12:33;101091.91;;;13.90;77.49
74778;BME280;63298;53.164;8.610;2022-10-16T01:15:30;101094.44;;;13.91;78.43
74778;BME280;63298;53.164;8.610;2022-10-16T01:18:11;101088.53;;;13.88;77.55
74778;BME280;63298;53.164;8.610;2022-10-16T01:20:50;101080.13;;;13.82;77.71
74778;BME280;63298;53.164;8.610;2022-10-16T01:28:29;101083.09;;;13.76;77.67
74778;BME280;63298;53.164;8.610;2022-10-16T01:31:00;101080.78;;;13.73;77.92
74778;BME280;63298;53.164;8.610;2022-10-16T01:33:41;101090.28;;;13.77;77.55
74778;BME280;63298;53.164;8.610;2022-10-16T01:36:13;101082.16;;;13.70;78.13
74778;BME280;63298;53.164;8.610;2022-10-16T01:38:43;101096.34;;;13.74;78.08
74778;BME280;63298;53.164;8.610;2022-10-16T01:41:14;101100.22;;;13.73;78.30
74778;BME280;63298;53.164;8.610;2022-10-16T01:43:46;101082.41;;;13.69;77.87
74778;BME280;63298;53.164;8.610;2022-10-16T01:46:16;101091.03;;;13.72;78.10
74778;BME280;63298;53.164;8.610;2022-10-16T01:48:44;101072.66;;;13.66;78.16
74778;BME280;63298;53.164;8.610;2022-10-16T01:51:12;101073.84;;;13.70;77.87
74778;BME280;63298;53.164;8.610;2022-10-16T01:53:39;101085.50;;;13.72;78.15
74778;BME280;63298;53.164;8.610;2022-10-16T01:56:08;101083.75;;;13.66;78.16
74778;BME280;63298;53.164;8.610;2022-10-16T01:58:39;101096.41;;;13.62;78.09
74778;BME280;63298;53.164;8.610;2022-10-16T02:01:09;101087.25;;;13.62;78.23
74778;BME280;63298;53.164;8.610;2022-10-16T02:03:37;101091.06;;;13.56;78.37
74778;BME280;63298;53.164;8.610;2022-10-16T02:06:06;101099.09;;;13.57;78.55
74778;BME280;63298;53.164;8.610;2022-10-16T02:08:32;101099.59;;;13.54;78.39
74778;BME280;63298;53.164;8.610;2022-10-16T02:11:00;101092.66;;;13.52;78.16
74778;BME280;63298;53.164;8.610;2022-10-16T02:13:30;101107.31;;;13.52;78.31
74778;BME280;63298;53.164;8.610;2022-10-16T02:15:57;101107.00;;;13.49;78.12
74778;BME280;63298;53.164;8.610;2022-10-16T02:18:26;101113.97;;;13.51;78.08
74778;BME280;63298;53.164;8.610;2022-10-16T02:20:56;101104.97;;;13.44;78.51
74778;BME280;63298;53.164;8.610;2022-10-16T02:26:30;101106.50;;;13.52;78.11
74778;BME280;63298;53.164;8.610;2022-10-16T02:29:02;101112.06;;;13.52;78.35
74778;BME280;63298;53.164;8.610;2022-10-16T02:31:32;101107.31;;;13.52;78.04
74778;BME280;63298;53.164;8.610;2022-10-16T02:33:58;101110.09;;;13.52;78.27
74778;BME280;63298;53.164;8.610;2022-10-16T02:36:26;101103.75;;;13.52;78.36
74778;BME280;63298;53.164;8.610;2022-10-16T02:38:55;101097.06;;;13.53;78.34
74778;BME280;63298;53.164;8.610;2022-10-16T02:41:22;101096.22;;;13.52;77.98
74778;BME280;63298;53.164;8.610;2022-10-16T02:43:48;101096.84;;;13.54;77.97
74778;BME280;63298;53.164;8.610;2022-10-16T02:46:13;101086.50;;;13.50;78.25
74778;BME280;63298;53.164;8.610;2022-10-16T02:48:39;101102.63;;;13.53;78.12
74778;BME280;63298;53.164;8.610;2022-10-16T02:51:04;101094.31;;;13.53;78.16
74778;BME280;63298;53.164;8.610;2022-10-16T02:53:30;101093.47;;;13.52;78.07
74778;BME280;63298;53.164;8.610;2022-10-16T02:55:56;101094.91;;;13.55;77.67
74778;BME280;63298;53.164;8.610;2022-10-16T02:58:21;101088.84;;;13.58;77.95
74778;BME280;63298;53.164;8.610;2022-10-16T03:00:50;101098.00;;;13.58;77.98
74778;BME280;63298;53.164;8.610;2022-10-16T03:03:15;101098.25;;;13.57;78.08
74778;BME280;63298;53.164;8.610;2022-10-16T03:05:43;101098.34;;;13.62;77.85
74778;BME280;63298;53.164;8.610;2022-10-16T03:08:08;101103.41;;;13.65;77.37
74778;BME280;63298;53.164;8.610;2022-10-16T03:10:34;101100.31;;;13.61;77.83
74778;BME280;63298;53.164;8.610;2022-10-16T03:12:59;101091.91;;;13.56;77.59
74778;BME280;63298;53.164;8.610;2022-10-16T03:15:25;101105.25;;;13.59;78.12
74778;BME280;63298;53.164;8.610;2022-10-16T03:17:51;101097.69;;;13.55;77.91
74778;BME280;63298;53.164;8.610;2022-10-16T03:20:17;101096.00;;;13.54;77.95
74778;BME280;63298;53.164;8.610;2022-10-16T03:22:42;101105.91;;;13.50;78.09
74778;BME280;63298;53.164;8.610;2022-10-16T03:25:08;101100.03;;;13.46;78.16
74778;BME280;63298;53.164;8.610;2022-10-16T03:27:33;101092.56;;;13.47;77.86
74778;BME280;63298;53.164;8.610;2022-10-16T03:29:59;101116.00;;;13.56;78.08
74778;BME280;63298;53.164;8.610;2022-10-16T03:32:24;101114.31;;;13.55;78.08
74778;BME280;63298;53.164;8.610;2022-10-16T03:34:50;101123.13;;;13.52;78.22
74778;BME280;63298;53.164;8.610;2022-10-16T03:37:16;101127.31;;;13.54;77.87
74778;BME280;63298;53.164;8.610;2022-10-16T03:39:41;101119.75;;;13.50;78.24
74778;BME280;63298;53.164;8.610;2022-10-16T03:42:07;101132.63;;;13.56;77.97
74778;BME280;63298;53.164;8.610;2022-10-16T03:44:32;101122.53;;;13.50;78.46
74778;BME280;63298;53.164;8.610;2022-10-16T03:46:57;101110.28;;;13.46;78.36
74778;BME280;63298;53.164;8.610;2022-10-16T03:49:23;101113.28;;;13.44;78.48
74778;BME280;63298;53.164;8.610;2022-10-16T03:51:48;101109.66;;;13.44;78.61
74778;BME280;63298;53.164;8.610;2022-10-16T03:54:14;101122.44;;;13.45;78.37
74778;BME280;63298;53.164;8.610;2022-10-16T03:56:39;101116.72;;;13.34;78.37
74778;BME280;63298;53.164;8.610;2022-10-16T03:59:04;101120.09;;;13.36;78.54
74778;BME280;63298;53.164;8.610;2022-10-16T04:01:30;101126.72;;;13.35;78.77
74778;BME280;63298;53.164;8.610;2022-10-16T04:03:55;101119.34;;;13.41;78.83
74778;BME280;63298;53.164;8.610;2022-10-16T04:06:20;101126.44;;;13.37;78.69
74778;BME280;63298;53.164;8.610;2022-10-16T04:08:46;101123.94;;;13.35;79.24
74778;BME280;63298;53.164;8.610;2022-10-16T04:11:11;101131.16;;;13.36;78.92
74778;BME280;63298;53.164;8.610;2022-10-16T04:13:37;101124.50;;;13.37;78.82
74778;BME280;63298;53.164;8.610;2022-10-16T04:16:02;101130.31;;;13.36;79.26
74778;BME280;63298;53.164;8.610;2022-10-16T04:18:28;101140.06;;;13.38;78.95
74778;BME280;63298;53.164;8.610;2022-10-16T04:20:54;101142.25;;;13.36;79.21
74778;BME280;63298;53.164;8.610;2022-10-16T04:23:20;101140.06;;;13.38;79.63
74778;BME280;63298;53.164;8.610;2022-10-16T04:25:45;101132.59;;;13.39;79.40
74778;BME280;63298;53.164;8.610;2022-10-16T04:28:11;101138.13;;;13.39;79.76
74778;BME280;63298;53.164;8.610;2022-10-16T04:30:38;101134.59;;;13.44;79.58
74778;BME280;63298;53.164;8.610;2022-10-16T04:33:03;101142.09;;;13.43;79.57
74778;BME280;63298;53.164;8.610;2022-10-16T04:35:28;101143.03;;;13.49;79.94
74778;BME280;63298;53.164;8.610;2022-10-16T04:37:57;101135.78;;;13.48;79.80
74778;BME280;63298;53.164;8.610;2022-10-16T04:40:23;101139.69;;;13.47;79.63
74778;BME280;63298;53.164;8.610;2022-10-16T04:42:49;101138.31;;;13.49;79.98
74778;BME280;63298;53.164;8.610;2022-10-16T04:45:14;101142.78;;;13.50;80.12
74778;BME280;63298;53.164;8.610;2022-10-16T04:47:40;101148.66;;;13.54;80.10
74778;BME280;63298;53.164;8.610;2022-10-16T04:50:06;101141.53;;;13.58;80.00
74778;BME280;63298;53.164;8.610;2022-10-16T04:52:31;101144.28;;;13.58;79.80
74778;BME280;63298;53.164;8.610;2022-10-16T04:54:57;101146.81;;;13.59;80.14
74778;BME280;63298;53.164;8.610;2022-10-16T04:57:23;101149.44;;;13.66;79.94
74778;BME280;63298;53.164;8.610;2022-10-16T04:59:49;101167.75;;;13.67;79.70
74778;BME280;63298;53.164;8.610;2022-10-16T05:02:14;101151.84;;;13.62;79.74
74778;BME280;63298;53.164;8.610;2022-10-16T05:04:40;101161.13;;;13.68;79.98
74778;BME280;63298;53.164;8.610;2022-10-16T05:07:05;101163.66;;;13.69;79.53
74778;BME280;63298;53.164;8.610;2022-10-16T05:09:31;101170.38;;;13.73;79.77
74778;BME280;63298;53.164;8.610;2022-10-16T05:11:57;101162.66;;;13.75;79.52
74778;BME280;63298;53.164;8.610;2022-10-16T05:14:22;101151.19;;;13.72;79.83
74778;BME280;63298;53.164;8.610;2022-10-16T05:16:47;101146.00;;;13.75;79.69
74778;BME280;63298;53.164;8.610;2022-10-16T05:19:13;101159.59;;;13.77;79.41
74778;BME280;63298;53.164;8.610;2022-10-16T05:21:38;101177.09;;;13.77;79.83
74778;BME280;63298;53.164;8.610;2022-10-16T05:24:03;101184.00;;;13.75;79.73
74778;BME280;63298;53.164;8.610;2022-10-16T05:26:29;101189.25;;;13.76;79.60
74778;BME280;63298;53.164;8.610;2022-10-16T05:28:54;101186.75;;;13.75;79.73
74778;BME280;63298;53.164;8.610;2022-10-16T05:31:19;101184.31;;;13.78;80.03
74778;BME280;63298;53.164;8.610;2022-10-16T05:33:45;101178.34;;;13.70;80.25
74778;BME280;63298;53.164;8.610;2022-10-16T05:36:11;101186.16;;;13.73;80.15
74778;BME280;63298;53.164;8.610;2022-10-16T05:38:37;101186.56;;;13.65;80.22
74778;BME280;63298;53.164;8.610;2022-10-16T05:41:03;101190.28;;;13.70;80.22
74778;BME280;63298;53.164;8.610;2022-10-16T05:43:31;101186.06;;;13.68;80.73
74778;BME280;63298;53.164;8.610;2022-10-16T05:45:58;101188.84;;;13.68;80.61
74778;BME280;63298;53.164;8.610;2022-10-16T05:48:24;101207.50;;;13.72;80.72
74778;BME280;63298;53.164;8.610;2022-10-16T05:51:07;101194.75;;;13.71;81.00
74778;BME280;63298;53.164;8.610;2022-10-16T05:53:35;101197.84;;;13.75;80.71
74778;BME280;63298;53.164;8.610;2022-10-16T05:56:00;101210.03;;;13.74;80.66
74778;BME280;63298;53.164;8.610;2022-10-16T06:01:05;101207.16;;;13.69;81.10
74778;BME280;63298;53.164;8.610;2022-10-16T06:03:31;101203.78;;;13.67;82.30
74778;BME280;63298;53.164;8.610;2022-10-16T06:05:57;101198.75;;;13.64;81.00
74778;BME280;63298;53.164;8.610;2022-10-16T06:08:23;101212.09;;;13.67;80.84
74778;BME280;63298;53.164;8.610;2022-10-16T06:10:59;101209.34;;;13.67;81.43
74778;BME280;63298;53.164;8.610;2022-10-16T06:13:25;101224.97;;;13.73;80.95
74778;BME280;63298;53.164;8.610;2022-10-16T06:15:51;101213.88;;;13.73;80.92
74778;BME280;63298;53.164;8.610;2022-10-16T06:18:16;101217.50;;;13.73;80.93
74778;BME280;63298;53.164;8.610;2022-10-16T06:20:42;101236.06;;;13.73;81.06
74778;BME280;63298;53.164;8.610;2022-10-16T06:23:07;101227.75;;;13.73;80.81
74778;BME280;63298;53.164;8.610;2022-10-16T06:25:33;101233.91;;;13.75;81.10
74778;BME280;63298;53.164;8.610;2022-10-16T06:27:58;101245.00;;;13.75;81.52
74778;BME280;63298;53.164;8.610;2022-10-16T06:30:23;101243.06;;;13.75;81.04
74778;BME280;63298;53.164;8.610;2022-10-16T06:32:49;101245.00;;;13.75;81.09
74778;BME280;63298;53.164;8.610;2022-10-16T06:35:14;101239.94;;;13.72;81.41
74778;BME280;63298;53.164;8.610;2022-10-16T06:37:40;101242.97;;;13.70;81.46
74778;BME280;63298;53.164;8.610;2022-10-16T06:40:05;101248.00;;;13.73;81.34
74778;BME280;63298;53.164;8.610;2022-10-16T06:42:31;101256.09;;;13.75;81.53
74778;BME280;63298;53.164;8.610;2022-10-16T06:44:56;101252.22;;;13.76;81.20
74778;BME280;63298;53.164;8.610;2022-10-16T06:47:21;101248.25;;;13.72;81.08
74778;BME280;63298;53.164;8.610;2022-10-16T06:49:47;101252.47;;;13.74;81.57
74778;BME280;63298;53.164;8.610;2022-10-16T06:52:13;101260.56;;;13.76;81.78
74778;BME280;63298;53.164;8.610;2022-10-16T06:54:38;101259.09;;;13.73;81.56
74778;BME280;63298;53.164;8.610;2022-10-16T06:57:04;101268.25;;;13.74;81.82
74778;BME280;63298;53.164;8.610;2022-10-16T06:59:29;101266.56;;;13.73;81.83
74778;BME280;63298;53.164;8.610;2022-10-16T07:01:54;101271.53;;;13.71;82.16
74778;BME280;63298;53.164;8.610;2022-10-16T07:04:20;101289.38;;;13.75;82.55
74778;BME280;63298;53.164;8.610;2022-10-16T07:06:45;101296.09;;;13.79;81.78
74778;BME280;63298;53.164;8.610;2022-10-16T07:09:11;101288.38;;;13.81;81.73
74778;BME280;63298;53.164;8.610;2022-10-16T07:11:39;101292.56;;;13.83;82.26
74778;BME280;63298;53.164;8.610;2022-10-16T07:14:04;101310.06;;;13.84;81.99
74778;BME280;63298;53.164;8.610;2022-10-16T07:16:32;101300.75;;;13.90;81.72
74778;BME280;63298;53.164;8.610;2022-10-16T07:19:00;101314.22;;;13.98;81.44
74778;BME280;63298;53.164;8.610;2022-10-16T07:21:27;101305.38;;;14.01;81.45
74778;BME280;63298;53.164;8.610;2022-10-16T07:23:55;101315.16;;;14.04;81.82
74778;BME280;63298;53.164;8.610;2022-10-16T07:26:22;101312.91;;;14.01;81.73
74778;BME280;63298;53.164;8.610;2022-10-16T07:28:48;101322.88;;;14.02;81.49
74778;BME280;63298;53.164;8.610;2022-10-16T07:31:15;101323.16;;;14.00;81.81
74778;BME280;63298;53.164;8.610;2022-10-16T07:33:41;101322.03;;;14.01;81.36
74778;BME280;63298;53.164;8.610;2022-10-16T07:36:07;101328.28;;;14.08;81.37
74778;BME280;63298;53.164;8.610;2022-10-16T07:38:33;101328.78;;;14.05;81.79
74778;BME280;63298;53.164;8.610;2022-10-16T07:41:00;101329.13;;;14.09;81.33
74778;BME280;63298;53.164;8.610;2022-10-16T07:43:27;101333.59;;;14.10;81.42
74778;BME280;63298;53.164;8.610;2022-10-16T07:45:53;101340.31;;;14.14;81.39
74778;BME280;63298;53.164;8.610;2022-10-16T07:48:19;101336.56;;;14.20;81.32
74778;BME280;63298;53.164;8.610;2022-10-16T07:50:45;101346.31;;;14.22;81.43
74778;BME280;63298;53.164;8.610;2022-10-16T07:53:11;101349.19;;;14.27;81.37
74778;BME280;63298;53.164;8.610;2022-10-16T07:55:37;101346.25;;;14.34;80.96
74778;BME280;63298;53.164;8.610;2022-10-16T07:58:02;101350.00;;;14.40;81.18
74778;BME280;63298;53.164;8.610;2022-10-16T08:00:27;101360.69;;;14.48;81.06
74778;BME280;63298;53.164;8.610;2022-10-16T08:02:53;101362.38;;;14.49;80.84
74778;BME280;63298;53.164;8.610;2022-10-16T08:05:19;101358.00;;;14.53;81.15
74778;BME280;63298;53.164;8.610;2022-10-16T08:07:49;101366.56;;;14.51;81.06
74778;BME280;63298;53.164;8.610;2022-10-16T08:10:20;101372.59;;;14.60;81.18
74778;BME280;63298;53.164;8.610;2022-10-16T08:12:46;101380.91;;;14.60;80.74
74778;BME280;63298;53.164;8.610;2022-10-16T08:15:11;101368.50;;;14.51;81.31
74778;BME280;63298;53.164;8.610;2022-10-16T08:17:37;101375.84;;;14.57;80.79
74778;BME280;63298;53.164;8.610;2022-10-16T08:20:03;101384.03;;;14.63;80.44
74778;BME280;63298;53.164;8.610;2022-10-16T08:22:29;101379.72;;;14.56;80.14
74778;BME280;63298;53.164;8.610;2022-10-16T08:24:54;101383.19;;;14.63;80.86
74778;BME280;63298;53.164;8.610;2022-10-16T08:27:20;101387.38;;;14.65;80.33
74778;BME280;63298;53.164;8.610;2022-10-16T08:29:45;101396.41;;;14.73;80.41
74778;BME280;63298;53.164;8.610;2022-10-16T08:32:11;101400.25;;;14.72;80.31
74778;BME280;63298;53.164;8.610;2022-10-16T08:34:36;101399.50;;;14.76;80.18
74778;BME280;63298;53.164;8.610;2022-10-16T08:37:01;101406.84;;;14.82;80.42
74778;BME280;63298;53.164;8.610;2022-10-16T08:39:27;101406.19;;;14.92;80.54
74778;BME280;63298;53.164;8.610;2022-10-16T08:44:48;101422.25;;;15.06;79.63
74778;BME280;63298;53.164;8.610;2022-10-16T08:47:33;101419.66;;;15.17;79.51
74778;BME280;63298;53.164;8.610;2022-10-16T08:50:09;101410.97;;;15.30;79.19
74778;BME280;63298;53.164;8.610;2022-10-16T08:52:38;101412.81;;;15.41;78.56
74778;BME280;63298;53.164;8.610;2022-10-16T08:55:19;101410.41;;;15.49;78.48
74778;BME280;63298;53.164;8.610;2022-10-16T08:57:48;101423.66;;;15.59;78.12
74778;BME280;63298;53.164;8.610;2022-10-16T09:00:14;101423.00;;;15.69;78.29
74778;BME280;63298;53.164;8.610;2022-10-16T09:03:05;101420.00;;;15.75;77.79
74778;BME280;63298;53.164;8.610;2022-10-16T09:05:57;101431.03;;;15.87;77.58
74778;BME280;63298;53.164;8.610;2022-10-16T09:11:38;101441.38;;;15.91;76.46
74778;BME280;63298;53.164;8.610;2022-10-16T09:17:01;101437.56;;;15.97;75.85
74778;BME280;63298;53.164;8.610;2022-10-16T09:19:53;101440.16;;;16.04;75.82
74778;BME280;63298;53.164;8.610;2022-10-16T09:22:25;101429.44;;;16.13;76.67
74778;BME280;63298;53.164;8.610;2022-10-16T09:24:51;101433.00;;;16.08;75.95
74778;BME280;63298;53.164;8.610;2022-10-16T09:27:17;101431.94;;;16.14;75.57
74778;BME280;63298;53.164;8.610;2022-10-16T09:29:45;101436.72;;;16.19;75.91
74778;BME280;63298;53.164;8.610;2022-10-16T09:32:18;101429.22;;;16.19;75.56
74778;BME280;63298;53.164;8.610;2022-10-16T09:34:54;101440.81;;;16.33;74.15
74778;BME280;63298;53.164;8.610;2022-10-16T09:37:20;101441.50;;;16.45;75.00
74778;BME280;63298;53.164;8.610;2022-10-16T09:39:51;101439.34;;;16.52;74.13
74778;BME280;63298;53.164;8.610;2022-10-16T09:42:22;101434.75;;;16.63;74.67
74778;BME280;63298;53.164;8.610;2022-10-16T09:44:51;101443.50;;;16.71;74.06
74778;BME280;63298;53.164;8.610;2022-10-16T09:47:23;101447.44;;;16.75;72.78
74778;BME280;63298;53.164;8.610;2022-10-16T09:49:56;101458.63;;;16.80;73.85
74778;BME280;63298;53.164;8.610;2022-10-16T09:52:23;101459.47;;;16.81;73.05
74778;BME280;63298;53.164;8.610;2022-10-16T09:54:57;101467.50;;;16.77;73.31
74778;BME280;63298;53.164;8.610;2022-10-16T09:57:23;101463.22;;;16.92;73.89
74778;BME280;63298;53.164;8.610;2022-10-16T09:59:54;101459.63;;;16.96;72.99
74778;BME280;63298;53.164;8.610;2022-10-16T10:02:35;101462.66;;;16.95;72.89
74778;BME280;63298;53.164;8.610;2022-10-16T10:05:02;101470.50;;;16.98;73.45
74778;BME280;63298;53.164;8.610;2022-10-16T10:07:32;101485.00;;;17.00;72.90
74778;BME280;63298;53.164;8.610;2022-10-16T10:09:59;101485.22;;;16.93;72.75
74778;BME280;63298;53.164;8.610;2022-10-16T10:12:27;101500.91;;;16.99;73.21
74778;BME280;63298;53.164;8.610;2022-10-16T10:14:56;101499.22;;;16.98;72.57
74778;BME280;63298;53.164;8.610;2022-10-16T10:17:26;101495.97;;;17.06;73.04
74778;BME280;63298;53.164;8.610;2022-10-16T10:20:01;101499.22;;;16.98;71.73
74778;BME280;63298;53.164;8.610;2022-10-16T10:22:40;101495.97;;;17.06;72.42
74778;BME280;63298;53.164;8.610;2022-10-16T10:30:27;101505.91;;;17.29;71.19
74778;BME280;63298;53.164;8.610;2022-10-16T10:38:52;101508.03;;;17.17;69.37
74778;BME280;63298;53.164;8.610;2022-10-16T10:46:55;101513.00;;;17.10;67.63
74778;BME280;63298;53.164;8.610;2022-10-16T10:52:33;101530.97;;;17.24;68.57
74778;BME280;63298;53.164;8.610;2022-10-16T10:58:24;101533.91;;;17.39;68.47
74778;BME280;63298;53.164;8.610;2022-10-16T11:01:02;101537.00;;;17.43;67.79
74778;BME280;63298;53.164;8.610;2022-10-16T11:11:54;101538.59;;;17.60;66.21
74778;BME280;63298;53.164;8.610;2022-10-16T11:20:32;101547.91;;;17.71;65.58
74778;BME280;63298;53.164;8.610;2022-10-16T11:22:37;101541.88;;;17.57;64.83
74778;BME280;63298;53.164;8.610;2022-10-16T11:25:20;101549.34;;;17.52;65.37
74778;BME280;63298;53.164;8.610;2022-10-16T11:30:44;101551.06;;;17.58;65.12
74778;BME280;63298;53.164;8.610;2022-10-16T11:35:47;101559.66;;;17.46;64.46
74778;BME280;63298;53.164;8.610;2022-10-16T11:38:31;101550.72;;;17.49;64.07
74778;BME280;63298;53.164;8.610;2022-10-16T11:41:03;101550.09;;;17.69;64.68
74778;BME280;63298;53.164;8.610;2022-10-16T11:43:48;101560.56;;;17.89;61.99
74778;BME280;63298;53.164;8.610;2022-10-16T11:46:20;101569.25;;;17.92;62.36
74778;BME280;63298;53.164;8.610;2022-10-16T11:49:13;101577.31;;;17.89;60.94
74778;BME280;63298;53.164;8.610;2022-10-16T11:51:48;101576.59;;;18.03;60.80
74778;BME280;63298;53.164;8.610;2022-10-16T11:57:17;101580.22;;;18.04;59.81
74778;BME280;63298;53.164;8.610;2022-10-16T12:02:47;101583.56;;;18.06;60.21
74778;BME280;63298;53.164;8.610;2022-10-16T12:08:33;101599.44;;;17.95;60.54
74778;BME280;63298;53.164;8.610;2022-10-16T12:17:00;101592.00;;;17.74;60.49
74778;BME280;63298;53.164;8.610;2022-10-16T12:19:28;101587.78;;;17.72;60.19
74778;BME280;63298;53.164;8.610;2022-10-16T12:22:00;101605.91;;;17.69;60.07
74778;BME280;63298;53.164;8.610;2022-10-16T12:24:41;101618.22;;;17.73;60.26
74778;BME280;63298;53.164;8.610;2022-10-16T12:27:30;101619.06;;;17.74;59.91
74778;BME280;63298;53.164;8.610;2022-10-16T12:29:58;101612.50;;;17.90;60.66
74778;BME280;63298;53.164;8.610;2022-10-16T12:35:03;101611.06;;;18.19;59.62
74778;BME280;63298;53.164;8.610;2022-10-16T12:37:35;101607.72;;;18.22;59.07
74778;BME280;63298;53.164;8.610;2022-10-16T12:40:14;101609.16;;;18.25;57.78
74778;BME280;63298;53.164;8.610;2022-10-16T12:42:40;101633.88;;;18.48;58.63
74778;BME280;63298;53.164;8.610;2022-10-16T12:45:32;101645.13;;;18.58;56.75
74778;BME280;63298;53.164;8.610;2022-10-16T12:48:00;101636.94;;;18.51;58.96
74778;BME280;63298;53.164;8.610;2022-10-16T12:50:37;101637.97;;;18.35;57.46
74778;BME280;63298;53.164;8.610;2022-10-16T12:53:17;101646.31;;;18.25;58.17
74778;BME280;63298;53.164;8.610;2022-10-16T12:55:55;101644.25;;;18.16;57.93
74778;BME280;63298;53.164;8.610;2022-10-16T12:58:44;101655.94;;;18.07;57.66
74778;BME280;63298;53.164;8.610;2022-10-16T13:06:39;101653.59;;;18.31;56.75
74778;BME280;63298;53.164;8.610;2022-10-16T13:09:28;101659.00;;;18.11;56.11
74778;BME280;63298;53.164;8.610;2022-10-16T13:22:30;101672.44;;;18.51;56.09
74778;BME280;63298;53.164;8.610;2022-10-16T13:25:20;101678.63;;;18.53;54.78
74778;BME280;63298;53.164;8.610;2022-10-16T13:27:55;101679.78;;;18.57;54.35
74778;BME280;63298;53.164;8.610;2022-10-16T13:30:24;101683.19;;;18.64;56.20
74778;BME280;63298;53.164;8.610;2022-10-16T13:33:03;101675.91;;;18.63;54.49
74778;BME280;63298;53.164;8.610;2022-10-16T13:35:33;101688.44;;;18.55;54.32
74778;BME280;63298;53.164;8.610;2022-10-16T13:38:24;101683.47;;;18.63;53.60
74778;BME280;63298;53.164;8.610;2022-10-16T13:40:58;101679.00;;;18.67;55.84
74778;BME280;63298;53.164;8.610;2022-10-16T13:43:40;101685.22;;;18.74;54.59
74778;BME280;63298;53.164;8.610;2022-10-16T13:46:23;101700.63;;;18.81;55.40
74778;BME280;63298;53.164;8.610;2022-10-16T13:48:57;101696.47;;;18.89;54.29
74778;BME280;63298;53.164;8.610;2022-10-16T13:51:25;101704.09;;;19.04;55.88
74778;BME280;63298;53.164;8.610;2022-10-16T13:53:54;101709.13;;;19.02;54.61
74778;BME280;63298;53.164;8.610;2022-10-16T13:56:22;101703.78;;;19.00;55.02
74778;BME280;63298;53.164;8.610;2022-10-16T13:59:06;101706.06;;;19.03;53.85
74778;BME280;63298;53.164;8.610;2022-10-16T14:01:41;101713.84;;;18.96;52.41
74778;BME280;63298;53.164;8.610;2022-10-16T14:04:10;101718.06;;;18.98;54.37
74778;BME280;63298;53.164;8.610;2022-10-16T14:06:40;101708.59;;;19.10;54.26
74778;BME280;63298;53.164;8.610;2022-10-16T14:11:57;101717.25;;;19.03;53.19
74778;BME280;63298;53.164;8.610;2022-10-16T14:14:27;101732.53;;;18.90;54.37
74778;BME280;63298;53.164;8.610;2022-10-16T14:16:57;101730.22;;;18.77;54.38
74778;BME280;63298;53.164;8.610;2022-10-16T14:19:27;101728.84;;;18.80;54.54
74778;BME280;63298;53.164;8.610;2022-10-16T14:21:54;101735.56;;;18.79;55.14
74778;BME280;63298;53.164;8.610;2022-10-16T14:24:46;101748.75;;;18.88;54.60
74778;BME280;63298;53.164;8.610;2022-10-16T14:27:33;101747.44;;;19.01;55.47
74778;BME280;63298;53.164;8.610;2022-10-16T14:30:18;101755.31;;;19.09;55.59
74778;BME280;63298;53.164;8.610;2022-10-16T14:33:02;101755.31;;;19.14;54.37
74778;BME280;63298;53.164;8.610;2022-10-16T14:35:33;101764.31;;;19.21;55.85
74778;BME280;63298;53.164;8.610;2022-10-16T14:38:00;101753.72;;;19.23;55.88
74778;BME280;63298;53.164;8.610;2022-10-16T14:40:34;101754.56;;;19.24;55.70
74778;BME280;63298;53.164;8.610;2022-10-16T14:43:02;101753.09;;;19.16;56.49